createdAt,value
2022-10-05T00:00:18.775Z,5.45
2022-10-05T00:02:46.720Z,6.05
2022-10-05T00:05:21.858Z,5.53
2022-10-05T00:07:48.786Z,6.22
2022-10-05T00:10:18.314Z,6.00
2022-10-05T00:12:48.280Z,6.00
2022-10-05T00:15:23.977Z,6.57
2022-10-05T00:17:52.351Z,5.57
2022-10-05T00:20:25.069Z,5.38
2022-10-05T00:23:01.434Z,5.75
2022-10-05T00:25:28.544Z,5.72
2022-10-05T00:28:01.341Z,5.50
2022-10-05T00:30:34.593Z,5.72
2022-10-05T00:33:02.677Z,8.53
2022-10-05T00:35:32.640Z,6.30
2022-10-05T00:37:59.363Z,5.75
2022-10-05T00:40:48.343Z,6.03
2022-10-05T00:43:38.263Z,5.60
2022-10-05T00:46:23.591Z,6.07
2022-10-05T00:49:17.667Z,5.78
2022-10-05T00:51:53.433Z,6.43
2022-10-05T00:54:36.538Z,5.30
2022-10-05T00:57:38.499Z,6.00
2022-10-05T01:00:09.576Z,5.60
2022-10-05T01:02:39.053Z,5.32
2022-10-05T01:05:32.615Z,5.18
2022-10-05T01:08:42.827Z,6.13
2022-10-05T01:11:26.800Z,5.97
2022-10-05T01:14:12.973Z,6.43
2022-10-05T01:17:00.069Z,6.20
2022-10-05T01:19:42.803Z,5.18
2022-10-05T01:22:40.393Z,6.15
2022-10-05T01:25:42.783Z,5.43
2022-10-05T01:28:32.145Z,5.90
2022-10-05T01:31:03.929Z,5.72
2022-10-05T01:33:39.525Z,5.78
2022-10-05T01:36:20.266Z,5.57
2022-10-05T01:39:05.415Z,5.95
2022-10-05T01:41:41.162Z,6.00
2022-10-05T01:44:21.797Z,5.65
2022-10-05T01:47:07.145Z,5.43
2022-10-05T01:49:39.046Z,5.95
2022-10-05T01:52:13.123Z,5.70
2022-10-05T01:57:06.425Z,6.18
2022-10-05T01:59:51.229Z,5.78
2022-10-05T02:02:20.738Z,6.22
2022-10-05T02:05:11.316Z,6.05
2022-10-05T02:07:50.009Z,6.38
2022-10-05T02:10:37.236Z,6.40
2022-10-05T02:13:13.031Z,6.28
2022-10-05T02:15:57.677Z,5.70
2022-10-05T02:18:40.700Z,6.45
2022-10-05T02:21:10.293Z,6.72
2022-10-05T02:23:41.408Z,6.90
2022-10-05T02:26:12.077Z,6.90
2022-10-05T02:28:53.649Z,6.78
2022-10-05T02:31:34.919Z,6.15
2022-10-05T02:34:23.339Z,6.22
2022-10-05T02:37:01.934Z,5.90
2022-10-05T02:39:40.151Z,6.00
2022-10-05T02:42:53.139Z,6.40
2022-10-05T02:45:26.303Z,6.60
2022-10-05T02:47:58.619Z,5.97
2022-10-05T02:50:45.677Z,6.25
2022-10-05T02:53:32.641Z,6.25
2022-10-05T02:56:37.494Z,6.40
2022-10-05T02:59:55.797Z,5.90
2022-10-05T03:02:41.328Z,5.50
2022-10-05T03:05:38.944Z,6.63
2022-10-05T03:08:34.272Z,6.63
2022-10-05T03:11:31.857Z,7.00
2022-10-05T03:14:24.863Z,5.68
2022-10-05T03:17:09.989Z,6.32
2022-10-05T03:20:14.403Z,6.30
2022-10-05T03:22:47.185Z,5.78
2022-10-05T03:25:29.156Z,6.22
2022-10-05T03:28:03.540Z,6.55
2022-10-05T03:30:42.763Z,6.80
2022-10-05T03:33:19.020Z,7.38
2022-10-05T03:35:56.737Z,6.63
2022-10-05T03:38:42.364Z,7.43
2022-10-05T03:41:20.334Z,6.60
2022-10-05T03:44:02.072Z,6.72
2022-10-05T03:46:43.010Z,6.95
2022-10-05T03:49:34.110Z,5.90
2022-10-05T03:52:11.213Z,7.05
2022-10-05T03:55:00.128Z,7.45
2022-10-05T03:57:32.239Z,7.32
2022-10-05T04:00:06.465Z,8.05
2022-10-05T04:02:45.428Z,7.40
2022-10-05T04:05:22.958Z,7.30
2022-10-05T04:07:59.808Z,7.20
2022-10-05T04:10:45.516Z,7.70
2022-10-05T04:13:41.401Z,8.10
2022-10-05T04:16:31.457Z,7.55
2022-10-05T04:19:14.733Z,7.05
2022-10-05T04:21:51.693Z,7.38
2022-10-05T04:24:39.187Z,6.80
2022-10-05T04:27:21.784Z,8.52
2022-10-05T04:30:12.963Z,13.90
2022-10-05T04:32:42.643Z,6.78
2022-10-05T04:35:40.116Z,7.68
2022-10-05T04:38:33.393Z,7.88
2022-10-05T04:41:03.257Z,8.20
2022-10-05T04:43:32.885Z,7.20
2022-10-05T04:46:04.685Z,8.20
2022-10-05T04:48:59.998Z,8.15
2022-10-05T04:51:33.796Z,6.03
2022-10-05T04:54:31.456Z,7.20
2022-10-05T04:57:07.078Z,8.32
2022-10-05T04:59:52.153Z,7.35
2022-10-05T05:02:56.244Z,7.65
2022-10-05T05:06:05.151Z,8.43
2022-10-05T05:08:52.504Z,7.93
2022-10-05T05:11:55.231Z,7.57
2022-10-05T05:14:22.010Z,8.00
2022-10-05T05:17:09.642Z,8.35
2022-10-05T05:20:09.702Z,7.72
2022-10-05T05:22:55.263Z,7.05
2022-10-05T05:25:45.823Z,7.97
2022-10-05T05:28:44.134Z,7.38
2022-10-05T05:31:28.025Z,7.90
2022-10-05T05:34:32.109Z,6.80
2022-10-05T05:37:12.640Z,7.65
2022-10-05T05:39:59.844Z,7.63
2022-10-05T05:42:51.592Z,8.55
2022-10-05T05:45:32.524Z,9.25
2022-10-05T05:48:02.964Z,8.63
2022-10-05T05:50:52.877Z,9.15
2022-10-05T05:53:32.009Z,8.32
2022-10-05T05:56:11.051Z,8.43
2022-10-05T05:58:58.652Z,7.95
2022-10-05T06:01:45.244Z,8.55
2022-10-05T06:04:46.790Z,8.63
2022-10-05T06:07:18.962Z,8.10
2022-10-05T06:10:24.865Z,8.10
2022-10-05T06:13:03.558Z,8.38
2022-10-05T06:15:40.998Z,8.63
2022-10-05T06:18:26.941Z,8.85
2022-10-05T06:21:02.237Z,8.52
2022-10-05T06:23:45.880Z,9.27
2022-10-05T06:26:43.729Z,8.47
2022-10-05T06:29:20.118Z,8.48
2022-10-05T06:32:03.190Z,8.07
2022-10-05T06:34:42.176Z,7.80
2022-10-05T06:37:37.782Z,9.10
2022-10-05T06:40:36.629Z,9.15
2022-10-05T06:43:06.728Z,9.13
2022-10-05T06:46:05.921Z,9.20
2022-10-05T06:49:14.664Z,10.02
2022-10-05T06:51:52.792Z,9.55
2022-10-05T06:54:33.431Z,9.93
2022-10-05T06:57:21.701Z,9.45
2022-10-05T07:00:01.004Z,10.43
2022-10-05T07:02:39.095Z,9.98
2022-10-05T07:05:31.512Z,10.13
2022-10-05T07:08:09.409Z,11.45
2022-10-05T07:10:45.332Z,11.23
2022-10-05T07:13:50.784Z,10.73
2022-10-05T07:16:52.847Z,10.00
2022-10-05T07:19:31.223Z,10.05
2022-10-05T07:22:34.480Z,10.70
2022-10-05T07:25:13.364Z,10.55
2022-10-05T07:28:07.895Z,10.55
2022-10-05T07:31:11.064Z,11.50
2022-10-05T07:34:07.204Z,11.80
2022-10-05T07:37:01.582Z,11.02
2022-10-05T07:40:00.600Z,10.82
2022-10-05T07:42:54.289Z,11.27
2022-10-05T07:45:41.149Z,11.93
2022-10-05T07:48:18.802Z,11.23
2022-10-05T07:50:57.548Z,12.65
2022-10-05T07:53:46.325Z,12.50
2022-10-05T07:56:38.006Z,11.98
2022-10-05T07:59:13.917Z,11.23
2022-10-05T08:01:48.076Z,12.07
2022-10-05T08:04:20.744Z,12.50
2022-10-05T08:06:53.382Z,12.52
2022-10-05T08:09:57.739Z,11.68
2022-10-05T08:12:35.745Z,11.35
2022-10-05T08:15:11.841Z,11.27
2022-10-05T08:17:53.614Z,12.27
2022-10-05T08:20:35.416Z,12.13
2022-10-05T08:23:24.600Z,11.85
2022-10-05T08:26:14.737Z,11.65
2022-10-05T08:29:13.793Z,10.55
2022-10-05T08:31:46.340Z,10.23
2022-10-05T08:34:40.739Z,10.77
2022-10-05T08:37:28.477Z,9.55
2022-10-05T08:40:04.445Z,9.65
2022-10-05T08:42:49.037Z,9.30
2022-10-05T08:45:49.047Z,8.65
2022-10-05T08:48:34.384Z,8.60
2022-10-05T08:51:49.662Z,6.43
2022-10-05T08:54:41.557Z,5.30
2022-10-05T08:57:17.411Z,4.28
2022-10-05T09:00:03.368Z,5.03
2022-10-05T09:02:37.156Z,2.90
2022-10-05T09:05:42.459Z,2.67
2022-10-05T09:08:52.516Z,2.58
2022-10-05T09:11:54.573Z,2.50
2022-10-05T09:14:39.127Z,2.75
2022-10-05T09:17:41.783Z,3.22
2022-10-05T09:20:31.003Z,2.67
2022-10-05T09:23:13.893Z,3.22
2022-10-05T09:26:01.140Z,3.10
2022-10-05T09:28:48.711Z,2.90
2022-10-05T09:31:42.552Z,3.20
2022-10-05T09:34:20.766Z,2.70
2022-10-05T09:37:26.827Z,2.72
2022-10-05T09:40:11.269Z,2.95
2022-10-05T09:45:42.933Z,3.03
2022-10-05T09:51:01.298Z,3.33
2022-10-05T09:54:15.975Z,3.30
2022-10-05T09:57:20.032Z,3.10
2022-10-05T10:00:17.782Z,2.90
2022-10-05T10:02:50.401Z,2.72
2022-10-05T10:05:32.287Z,2.70
2022-10-05T10:08:25.005Z,2.85
2022-10-05T10:10:57.255Z,2.60
2022-10-05T10:13:39.335Z,2.97
2022-10-05T10:16:12.174Z,2.70
2022-10-05T10:19:06.626Z,2.85
2022-10-05T10:22:06.077Z,3.20
2022-10-05T10:24:48.748Z,2.95
2022-10-05T10:27:40.367Z,2.75
2022-10-05T10:30:27.511Z,2.47
2022-10-05T10:33:11.551Z,2.53
2022-10-05T10:35:53.673Z,2.50
2022-10-05T10:39:00.601Z,2.50
2022-10-05T10:41:58.319Z,2.55
2022-10-05T10:44:48.319Z,2.97
2022-10-05T10:47:38.264Z,2.53
2022-10-05T10:50:28.778Z,2.92
2022-10-05T10:53:09.926Z,2.65
2022-10-05T10:56:11.942Z,2.42
2022-10-05T10:58:57.311Z,2.55
2022-10-05T11:01:52.690Z,2.70
2022-10-05T11:04:53.880Z,2.88
2022-10-05T11:07:29.282Z,2.80
2022-10-05T11:10:26.512Z,3.28
2022-10-05T11:13:32.142Z,2.72
2022-10-05T11:16:43.424Z,2.92
2022-10-05T11:20:03.022Z,3.25
2022-10-05T11:23:13.709Z,3.13
2022-10-05T11:25:49.323Z,2.88
2022-10-05T11:28:37.602Z,3.13
2022-10-05T11:31:21.535Z,2.80
2022-10-05T11:34:20.692Z,2.90
2022-10-05T11:37:07.701Z,2.50
2022-10-05T11:39:43.776Z,2.53
2022-10-05T11:42:36.685Z,2.72
2022-10-05T11:45:27.728Z,2.33
2022-10-05T11:48:15.856Z,2.80
2022-10-05T11:50:57.841Z,2.47
2022-10-05T11:53:35.172Z,2.50
2022-10-05T11:56:01.804Z,2.80
2022-10-05T11:58:56.031Z,2.90
2022-10-05T12:01:34.583Z,1.90
2022-10-05T12:04:28.803Z,2.60
2022-10-05T12:07:16.747Z,1.92
2022-10-05T12:10:17.101Z,2.60
2022-10-05T12:12:53.759Z,2.60
2022-10-05T12:15:40.780Z,2.35
2022-10-05T12:18:17.891Z,2.25
2022-10-05T12:20:56.338Z,2.40
2022-10-05T12:23:37.297Z,1.90
2022-10-05T12:26:19.768Z,2.63
2022-10-05T12:29:14.142Z,2.75
2022-10-05T12:32:07.400Z,2.33
2022-10-05T12:35:01.927Z,2.42
2022-10-05T12:37:43.375Z,2.13
2022-10-05T12:40:36.285Z,2.70
2022-10-05T12:43:18.892Z,2.42
2022-10-05T12:46:00.597Z,2.60
2022-10-05T12:49:03.070Z,2.40
2022-10-05T12:51:55.871Z,2.72
2022-10-05T12:54:46.448Z,2.53
2022-10-05T12:57:39.989Z,2.50
2022-10-05T13:00:19.018Z,2.60
2022-10-05T13:03:03.668Z,2.30
2022-10-05T13:06:01.767Z,2.60
2022-10-05T13:08:59.504Z,2.90
2022-10-05T13:11:49.381Z,2.72
2022-10-05T13:14:58.300Z,2.60
2022-10-05T13:17:37.323Z,2.63
2022-10-05T13:20:28.208Z,2.90
2022-10-05T13:23:13.490Z,2.65
2022-10-05T13:25:57.380Z,2.70
2022-10-05T13:29:04.577Z,2.47
2022-10-05T13:31:46.678Z,3.05
2022-10-05T13:34:34.034Z,2.60
2022-10-05T13:38:00.256Z,2.28
2022-10-05T13:40:39.259Z,2.50
2022-10-05T13:43:39.782Z,2.08
2022-10-05T13:46:33.355Z,2.50
2022-10-05T13:49:23.842Z,2.63
2022-10-05T13:52:19.962Z,2.58
2022-10-05T13:54:55.267Z,2.22
2022-10-05T13:57:45.297Z,2.10
2022-10-05T14:00:22.741Z,2.20
2022-10-05T14:02:58.207Z,2.13
2022-10-05T14:05:27.754Z,2.50
2022-10-05T14:07:56.022Z,2.08
2022-10-05T14:10:40.075Z,2.33
2022-10-05T14:13:31.550Z,2.35
2022-10-05T14:16:13.814Z,2.00
2022-10-05T14:19:04.441Z,2.25
2022-10-05T14:21:42.868Z,2.38
2022-10-05T14:24:43.806Z,2.60
2022-10-05T14:27:19.072Z,2.65
2022-10-05T14:30:12.870Z,2.47
2022-10-05T14:33:06.005Z,2.67
2022-10-05T14:35:57.814Z,2.40
2022-10-05T14:38:31.228Z,2.92
2022-10-05T14:41:20.836Z,2.58
2022-10-05T14:44:20.897Z,2.50
2022-10-05T14:46:58.780Z,2.80
2022-10-05T14:49:40.530Z,2.60
2022-10-05T14:52:32.577Z,2.60
2022-10-05T14:55:08.473Z,2.63
2022-10-05T14:57:39.840Z,2.60
2022-10-05T15:00:18.028Z,2.45
2022-10-05T15:03:18.092Z,2.63
2022-10-05T15:05:50.757Z,2.70
2022-10-05T15:08:45.206Z,2.78
2022-10-05T15:11:42.565Z,2.60
2022-10-05T15:14:32.302Z,2.72
2022-10-05T15:17:03.395Z,2.75
2022-10-05T15:19:47.289Z,2.72
2022-10-05T15:22:41.834Z,2.90
2022-10-05T15:28:21.524Z,2.30
2022-10-05T15:31:03.893Z,2.60
2022-10-05T15:33:50.069Z,2.60
2022-10-05T15:36:16.997Z,2.55
2022-10-05T15:39:09.047Z,2.40
2022-10-05T15:42:01.480Z,2.00
2022-10-05T15:44:34.284Z,2.70
2022-10-05T15:47:13.856Z,2.45
2022-10-05T15:49:58.643Z,2.83
2022-10-05T15:52:33.896Z,2.67
2022-10-05T15:55:09.393Z,2.30
2022-10-05T15:57:48.652Z,2.53
2022-10-05T16:00:20.801Z,2.58
2022-10-05T16:03:12.656Z,3.00
2022-10-05T16:06:40.879Z,2.90
2022-10-05T16:09:20.027Z,2.53
2022-10-05T16:12:00.111Z,2.40
2022-10-05T16:14:54.666Z,2.60
2022-10-05T16:17:33.253Z,2.78
2022-10-05T16:20:20.732Z,2.88
2022-10-05T16:23:06.054Z,3.05
2022-10-05T16:25:52.354Z,2.63
2022-10-05T16:28:50.468Z,3.10
2022-10-05T16:31:50.515Z,2.72
2022-10-05T16:34:35.874Z,2.28
2022-10-05T16:37:28.235Z,3.20
2022-10-05T16:40:01.591Z,2.70
2022-10-05T16:42:58.155Z,2.85
2022-10-05T16:45:45.367Z,2.60
2022-10-05T16:48:25.032Z,12.27
2022-10-05T16:50:55.153Z,6.55
2022-10-05T16:53:35.283Z,4.47
2022-10-05T16:56:07.656Z,3.20
2022-10-05T16:58:57.105Z,2.85
2022-10-05T17:02:03.394Z,2.67
2022-10-05T17:05:05.880Z,2.50
2022-10-05T17:08:13.953Z,2.42
2022-10-05T17:11:15.996Z,2.55
2022-10-05T17:14:10.372Z,2.28
2022-10-05T17:17:04.356Z,2.33
2022-10-05T17:20:13.415Z,2.47
2022-10-05T17:22:48.683Z,2.67
2022-10-05T17:25:22.591Z,2.85
2022-10-05T17:30:22.813Z,2.53
2022-10-05T17:33:26.457Z,2.70
2022-10-05T17:36:09.536Z,3.20
2022-10-05T17:39:15.108Z,2.42
2022-10-05T17:41:44.274Z,2.67
2022-10-05T17:44:17.098Z,2.22
2022-10-05T17:46:47.756Z,2.28
2022-10-05T17:49:46.933Z,2.47
2022-10-05T17:52:46.390Z,2.30
2022-10-05T17:55:42.521Z,2.53
2022-10-05T17:58:27.693Z,3.47
2022-10-05T18:00:57.793Z,2.80
2022-10-05T18:03:43.192Z,2.20
2022-10-05T18:06:33.588Z,2.10
2022-10-05T18:09:33.059Z,2.35
2022-10-05T18:12:25.381Z,2.53
2022-10-05T18:15:25.410Z,2.22
2022-10-05T18:18:20.874Z,2.28
2022-10-05T18:21:24.333Z,1.95
2022-10-05T18:23:59.885Z,2.47
2022-10-05T18:26:57.334Z,1.95
2022-10-05T18:30:08.896Z,2.10
2022-10-05T18:33:17.439Z,2.30
2022-10-05T18:36:05.573Z,2.20
2022-10-05T18:38:44.353Z,1.73
2022-10-05T18:41:35.095Z,2.25
2022-10-05T18:44:21.716Z,1.90
2022-10-05T18:47:18.505Z,2.10
2022-10-05T18:50:25.620Z,1.83
2022-10-05T18:53:03.347Z,1.90
2022-10-05T18:55:41.894Z,2.13
2022-10-05T18:58:22.240Z,1.90
2022-10-05T19:01:09.970Z,2.92
2022-10-05T19:03:59.272Z,3.38
2022-10-05T19:06:31.400Z,3.30
2022-10-05T19:09:23.130Z,3.05
2022-10-05T19:12:15.442Z,3.47
2022-10-05T19:14:58.287Z,2.72
2022-10-05T19:17:35.637Z,2.50
2022-10-05T19:20:40.205Z,2.13
2022-10-05T19:23:37.562Z,2.30
2022-10-05T19:26:32.178Z,2.22
2022-10-05T19:29:11.820Z,2.45
2022-10-05T19:32:00.071Z,2.15
2022-10-05T19:34:38.266Z,2.40
2022-10-05T19:37:40.833Z,2.20
2022-10-05T19:40:19.664Z,2.15
2022-10-05T19:43:08.792Z,2.33
2022-10-05T19:46:05.499Z,2.22
2022-10-05T19:48:36.631Z,2.08
2022-10-05T19:51:27.678Z,2.38
2022-10-05T19:53:57.187Z,1.95
2022-10-05T19:56:28.745Z,1.83
2022-10-05T19:58:58.283Z,1.98
2022-10-05T20:01:30.899Z,2.75
2022-10-05T20:04:00.796Z,2.60
2022-10-05T20:06:29.426Z,2.50
2022-10-05T20:09:00.016Z,2.03
2022-10-05T20:11:28.359Z,2.45
2022-10-05T20:13:55.149Z,2.10
2022-10-05T20:16:54.745Z,1.77
2022-10-05T20:19:54.292Z,2.25
2022-10-05T20:22:28.461Z,2.55
2022-10-05T20:25:09.142Z,2.40
2022-10-05T20:27:42.969Z,2.00
2022-10-05T20:30:12.658Z,2.10
2022-10-05T20:32:39.639Z,2.38
2022-10-05T20:35:07.023Z,2.25
2022-10-05T20:37:34.062Z,2.40
2022-10-05T20:40:00.860Z,2.10
2022-10-05T20:42:27.519Z,2.40
2022-10-05T20:44:56.993Z,2.70
2022-10-05T20:47:27.048Z,2.45
2022-10-05T20:49:55.844Z,2.30
2022-10-05T20:52:23.333Z,3.47
2022-10-05T20:54:53.891Z,2.88
2022-10-05T20:57:21.305Z,2.47
2022-10-05T20:59:49.581Z,2.15
2022-10-05T21:02:16.506Z,2.17
2022-10-05T21:04:47.524Z,2.17
2022-10-05T21:07:17.765Z,2.28
2022-10-05T21:09:46.507Z,2.13
2022-10-05T21:12:14.352Z,2.20
2022-10-05T21:14:41.073Z,2.13
2022-10-05T21:17:10.717Z,2.55
2022-10-05T21:19:40.697Z,2.28
2022-10-05T21:22:08.890Z,2.40
2022-10-05T21:24:37.001Z,2.45
2022-10-05T21:27:05.022Z,2.30
2022-10-05T21:29:33.037Z,2.30
2022-10-05T21:31:59.959Z,2.42
2022-10-05T21:34:26.669Z,1.95
2022-10-05T21:36:54.276Z,2.38
2022-10-05T21:39:21.002Z,2.17
2022-10-05T21:41:49.835Z,2.13
2022-10-05T21:44:16.826Z,2.55
2022-10-05T21:46:44.763Z,2.28
2022-10-05T21:49:13.340Z,2.72
2022-10-05T21:51:43.189Z,2.60
2022-10-05T21:54:13.013Z,2.70
2022-10-05T21:56:46.936Z,2.65
2022-10-05T22:01:43.003Z,2.60
2022-10-05T22:04:09.728Z,2.47
2022-10-05T22:06:36.724Z,2.47
2022-10-05T22:09:05.192Z,2.50
2022-10-05T22:11:32.920Z,3.00
2022-10-05T22:14:02.967Z,2.38
2022-10-05T22:16:32.964Z,2.60
2022-10-05T22:19:03.720Z,2.80
2022-10-05T22:21:32.797Z,2.53
2022-10-05T22:24:02.405Z,3.38
2022-10-05T22:26:29.606Z,2.70
2022-10-05T22:28:57.670Z,2.55
2022-10-05T22:31:24.482Z,2.40
2022-10-05T22:33:51.885Z,2.22
2022-10-05T22:36:19.706Z,2.50
2022-10-05T22:38:47.804Z,2.55
2022-10-05T22:41:15.414Z,2.67
2022-10-05T22:43:48.598Z,2.30
2022-10-05T22:46:20.648Z,2.25
2022-10-05T22:48:49.685Z,2.13
2022-10-05T22:51:17.042Z,2.30
2022-10-05T22:53:44.978Z,2.30
2022-10-05T22:56:13.837Z,1.23
2022-10-05T22:58:42.461Z,1.13
2022-10-05T23:01:12.663Z,0.70
2022-10-05T23:03:39.581Z,0.88
2022-10-05T23:06:14.547Z,0.70
2022-10-05T23:08:42.381Z,0.85
2022-10-05T23:11:13.177Z,0.77
2022-10-05T23:13:40.600Z,0.68
2022-10-05T23:16:09.326Z,1.05
2022-10-05T23:18:39.292Z,0.70
2022-10-05T23:21:09.827Z,1.02
2022-10-05T23:23:40.543Z,0.82
2022-10-05T23:26:08.601Z,0.90
2022-10-05T23:28:35.352Z,0.75
2022-10-05T23:31:07.299Z,0.95
2022-10-05T23:33:37.169Z,0.98
2022-10-05T23:36:08.024Z,0.55
2022-10-05T23:38:36.143Z,0.90
2022-10-05T23:41:02.984Z,0.80
2022-10-05T23:43:30.006Z,0.80
2022-10-05T23:45:56.826Z,0.75
2022-10-05T23:48:23.945Z,1.10
2022-10-05T23:50:51.625Z,0.60
2022-10-05T23:53:19.120Z,0.90
2022-10-05T23:55:51.425Z,0.90
2022-10-05T23:58:18.502Z,0.77
